createdAt,value
2018-07-21T00:00:34.488Z,100420.53
2018-07-21T00:03:02.886Z,100414.39
2018-07-21T00:05:31.332Z,100415.09
2018-07-21T00:07:59.769Z,100412.69
2018-07-21T00:10:28.203Z,100412.83
2018-07-21T00:12:56.660Z,100412.83
2018-07-21T00:15:25.144Z,100414.70
2018-07-21T00:17:53.556Z,100405.94
2018-07-21T00:20:21.982Z,100398.98
2018-07-21T00:22:50.375Z,100397.66
2018-07-21T00:25:18.744Z,100405.45
2018-07-21T00:27:47.217Z,100400.50
2018-07-21T00:30:15.627Z,100395.97
2018-07-21T00:32:44.140Z,100399.13
2018-07-21T00:35:12.592Z,100392.25
2018-07-21T00:37:41.081Z,100391.93
2018-07-21T00:40:09.685Z,100386.78
2018-07-21T00:42:38.118Z,100386.20
2018-07-21T00:45:06.563Z,100383.27
2018-07-21T00:47:34.973Z,100386.54
2018-07-21T00:50:03.428Z,100384.04
2018-07-21T00:52:32.496Z,100388.47
2018-07-21T00:55:00.925Z,100388.02
2018-07-21T00:57:29.336Z,100389.84
2018-07-21T00:59:57.730Z,100390.36
2018-07-21T01:02:26.741Z,100397.78
2018-07-21T01:04:55.149Z,100391.27
2018-07-21T01:07:23.536Z,100402.47
2018-07-21T01:09:51.982Z,100393.05
2018-07-21T01:12:20.468Z,100387.38
2018-07-21T01:14:48.925Z,100391.23
2018-07-21T01:17:17.338Z,100389.34
2018-07-21T01:19:45.801Z,100382.50
2018-07-21T01:22:14.175Z,100383.53
2018-07-21T01:24:42.868Z,100380.53
2018-07-21T01:27:11.240Z,100382.38
2018-07-21T01:29:39.636Z,100384.52
2018-07-21T01:32:08.042Z,100383.99
2018-07-21T01:34:36.452Z,100384.52
2018-07-21T01:37:04.892Z,100385.42
2018-07-21T01:39:33.384Z,100389.08
2018-07-21T01:42:01.754Z,100387.66
2018-07-21T01:44:30.144Z,100393.16
2018-07-21T01:46:58.592Z,100386.13
2018-07-21T01:49:27.008Z,100392.58
2018-07-21T01:51:55.450Z,100390.50
2018-07-21T01:54:23.861Z,100392.25
2018-07-21T01:56:52.241Z,100388.95
2018-07-21T01:59:20.660Z,100390.38
2018-07-21T02:01:49.092Z,100394.78
2018-07-21T02:04:17.479Z,100388.66
2018-07-21T02:06:45.901Z,100379.95
2018-07-21T02:09:14.304Z,100381.19
2018-07-21T02:11:42.692Z,100380.97
2018-07-21T02:14:11.101Z,100386.30
2018-07-21T02:16:39.508Z,100381.94
2018-07-21T02:19:08.014Z,100377.41
2018-07-21T02:21:36.457Z,100369.98
2018-07-21T02:24:04.908Z,100369.98
2018-07-21T02:26:33.318Z,100358.84
2018-07-21T02:29:01.712Z,100361.99
2018-07-21T02:31:30.186Z,100370.62
2018-07-21T02:33:58.719Z,100363.25
2018-07-21T02:36:27.664Z,100365.33
2018-07-21T02:38:56.121Z,100363.64
2018-07-21T02:41:24.578Z,100365.48
2018-07-21T02:43:52.969Z,100367.68
2018-07-21T02:46:21.329Z,100365.53
2018-07-21T02:48:49.795Z,100363.33
2018-07-21T02:51:18.211Z,100363.33
2018-07-21T02:53:46.577Z,100360.28
2018-07-21T02:56:14.994Z,100367.97
2018-07-21T02:58:43.411Z,100364.97
2018-07-21T03:01:11.781Z,100362.48
2018-07-21T03:03:40.185Z,100366.55
2018-07-21T03:06:08.597Z,100367.07
2018-07-21T03:08:36.995Z,100369.98
2018-07-21T03:11:05.400Z,100367.80
2018-07-21T03:13:33.849Z,100365.03
2018-07-21T03:16:02.280Z,100363.34
2018-07-21T03:18:30.648Z,100364.01
2018-07-21T03:20:59.073Z,100371.04
2018-07-21T03:23:27.498Z,100369.34
2018-07-21T03:25:55.972Z,100367.76
2018-07-21T03:28:24.381Z,100360.52
2018-07-21T03:30:52.861Z,100358.27
2018-07-21T03:33:21.233Z,100363.41
2018-07-21T03:35:49.643Z,100371.55
2018-07-21T03:38:18.067Z,100363.16
2018-07-21T03:40:46.491Z,100359.44
2018-07-21T03:43:14.919Z,100355.44
2018-07-21T03:45:43.372Z,100349.27
2018-07-21T03:48:11.731Z,100355.89
2018-07-21T03:50:40.127Z,100351.65
2018-07-21T03:53:08.527Z,100359.14
2018-07-21T03:55:36.970Z,100365.22
2018-07-21T03:58:05.424Z,100366.28
2018-07-21T04:00:33.953Z,100368.48
2018-07-21T04:03:02.553Z,100371.57
2018-07-21T04:05:30.940Z,100366.98
2018-07-21T04:07:59.290Z,100371.28
2018-07-21T04:10:27.778Z,100379.96
2018-07-21T04:12:56.305Z,100380.56
2018-07-21T04:15:24.806Z,100384.31
2018-07-21T04:17:53.239Z,100378.23
2018-07-21T04:20:21.660Z,100376.47
2018-07-21T04:22:50.052Z,100371.63
2018-07-21T04:25:18.506Z,100370.44
2018-07-21T04:27:47.473Z,100370.62
2018-07-21T04:30:15.940Z,100367.18
2018-07-21T04:32:44.422Z,100367.28
2018-07-21T04:35:12.843Z,100376.03
2018-07-21T04:37:41.311Z,100383.39
2018-07-21T04:40:09.787Z,100393.95
2018-07-21T04:42:38.211Z,100394.22
2018-07-21T04:45:06.664Z,100400.01
2018-07-21T04:47:35.059Z,100403.34
2018-07-21T04:50:04.226Z,100403.90
2018-07-21T04:52:33.324Z,100408.30
2018-07-21T04:55:01.782Z,100407.27
2018-07-21T04:57:30.307Z,100414.53
2018-07-21T04:59:58.740Z,100417.13
2018-07-21T05:02:27.139Z,100419.28
2018-07-21T05:04:55.599Z,100418.78
2018-07-21T05:07:24.020Z,100422.53
2018-07-21T05:09:52.435Z,100423.39
2018-07-21T05:12:20.880Z,100418.15
2018-07-21T05:14:49.272Z,100414.36
2018-07-21T05:17:17.779Z,100414.09
2018-07-21T05:19:46.157Z,100412.98
2018-07-21T05:22:14.527Z,100408.02
2018-07-21T05:24:43.229Z,100403.97
2018-07-21T05:27:11.688Z,100404.31
2018-07-21T05:29:40.461Z,100404.26
2018-07-21T05:32:08.917Z,100411.14
2018-07-21T05:34:37.334Z,100413.13
2018-07-21T05:37:05.727Z,100413.40
2018-07-21T05:39:34.157Z,100416.00
2018-07-21T05:42:02.593Z,100419.84
2018-07-21T05:44:31.023Z,100422.73
2018-07-21T05:46:59.449Z,100425.66
2018-07-21T05:49:27.912Z,100426.86
2018-07-21T05:51:56.389Z,100427.30
2018-07-21T05:54:25.007Z,100427.14
2018-07-21T05:56:53.422Z,100427.70
2018-07-21T05:59:22.277Z,100429.53
2018-07-21T06:01:50.852Z,100435.39
2018-07-21T06:04:19.249Z,100431.55
2018-07-21T06:06:47.724Z,100435.91
2018-07-21T06:09:16.084Z,100430.86
2018-07-21T06:11:45.505Z,100436.23
2018-07-21T06:14:13.976Z,100430.83
2018-07-21T06:16:42.490Z,100424.61
2018-07-21T06:19:10.908Z,100431.95
2018-07-21T06:21:39.332Z,100437.95
2018-07-21T06:24:07.763Z,100440.42
2018-07-21T06:26:36.581Z,100449.98
2018-07-21T06:29:05.008Z,100454.28
2018-07-21T06:31:33.527Z,100455.52
2018-07-21T06:34:01.954Z,100455.39
2018-07-21T06:36:30.513Z,100456.17
2018-07-21T06:38:58.993Z,100454.48
2018-07-21T06:41:27.448Z,100459.62
2018-07-21T06:43:55.937Z,100462.06
2018-07-21T06:46:24.390Z,100463.09
2018-07-21T06:48:52.835Z,100460.66
2018-07-21T06:51:21.394Z,100459.69
2018-07-21T06:53:49.834Z,100468.17
2018-07-21T06:56:18.258Z,100468.09
2018-07-21T06:58:46.649Z,100474.08
2018-07-21T07:01:15.039Z,100476.17
2018-07-21T07:03:43.845Z,100476.91
2018-07-21T07:06:12.314Z,100481.14
2018-07-21T07:08:40.732Z,100483.30
2018-07-21T07:11:09.164Z,100476.91
2018-07-21T07:13:37.616Z,100471.70
2018-07-21T07:16:06.283Z,100473.33
2018-07-21T07:18:34.761Z,100471.58
2018-07-21T07:21:03.292Z,100473.21
2018-07-21T07:23:31.705Z,100466.30
2018-07-21T07:26:00.148Z,100469.25
2018-07-21T07:28:28.562Z,100467.47
2018-07-21T07:30:57.023Z,100475.22
2018-07-21T07:33:25.444Z,100473.40
2018-07-21T07:35:54.542Z,100476.67
2018-07-21T07:38:22.948Z,100477.45
2018-07-21T07:40:51.690Z,100476.94
2018-07-21T07:43:20.114Z,100475.64
2018-07-21T07:45:48.601Z,100478.64
2018-07-21T07:48:17.012Z,100479.42
2018-07-21T07:50:45.484Z,100483.19
2018-07-21T07:53:14.706Z,100479.12
2018-07-21T07:55:43.131Z,100480.30
2018-07-21T07:58:11.524Z,100478.88
2018-07-21T08:00:39.953Z,100479.17
2018-07-21T08:03:08.406Z,100477.30
2018-07-21T08:05:36.775Z,100470.71
2018-07-21T08:08:05.273Z,100465.50
2018-07-21T08:10:33.729Z,100461.26
2018-07-21T08:13:02.263Z,100457.81
2018-07-21T08:15:30.669Z,100457.74
2018-07-21T08:17:59.216Z,100457.55
2018-07-21T08:20:27.620Z,100454.95
2018-07-21T08:22:56.108Z,100455.15
2018-07-21T08:25:24.510Z,100451.02
2018-07-21T08:27:54.030Z,100453.95
2018-07-21T08:30:22.475Z,100448.22
2018-07-21T08:32:50.903Z,100456.81
2018-07-21T08:35:19.324Z,100441.05
2018-07-21T08:37:47.716Z,100436.67
2018-07-21T08:40:16.128Z,100433.67
2018-07-21T08:42:44.591Z,100434.59
2018-07-21T08:45:13.043Z,100429.77
2018-07-21T08:47:41.480Z,100431.07
2018-07-21T08:50:09.900Z,100431.81
2018-07-21T08:52:38.366Z,100434.42
2018-07-21T08:55:06.799Z,100429.01
2018-07-21T08:57:35.280Z,100422.58
2018-07-21T09:00:04.412Z,100414.48
2018-07-21T09:02:32.816Z,100422.30
2018-07-21T09:05:01.297Z,100424.81
2018-07-21T09:07:29.728Z,100416.22
2018-07-21T09:09:58.349Z,100421.62
2018-07-21T09:12:26.798Z,100421.30
2018-07-21T09:14:55.575Z,100418.34
2018-07-21T09:17:24.016Z,100419.97
2018-07-21T09:19:52.933Z,100424.04
2018-07-21T09:22:21.310Z,100420.23
2018-07-21T09:24:50.108Z,100416.23
2018-07-21T09:27:18.588Z,100422.23
2018-07-21T09:29:47.071Z,100435.61
2018-07-21T09:32:15.539Z,100417.61
2018-07-21T09:34:44.544Z,100417.34
2018-07-21T09:37:13.342Z,100422.55
2018-07-21T09:39:41.715Z,100419.89
2018-07-21T09:42:10.132Z,100424.00
2018-07-21T09:44:38.528Z,100432.53
2018-07-21T09:47:07.002Z,100428.58
2018-07-21T09:49:35.907Z,100436.05
2018-07-21T09:52:04.805Z,100432.66
2018-07-21T09:54:34.052Z,100436.19
2018-07-21T09:57:02.515Z,100436.30
2018-07-21T09:59:30.922Z,100443.36
2018-07-21T10:01:59.404Z,100443.67
2018-07-21T10:04:27.840Z,100450.44
2018-07-21T10:06:56.231Z,100442.98
2018-07-21T10:09:24.713Z,100442.42
2018-07-21T10:11:53.130Z,100436.06
2018-07-21T10:14:21.624Z,100437.41
2018-07-21T10:16:50.102Z,100429.78
2018-07-21T10:19:18.576Z,100428.72
2018-07-21T10:21:47.106Z,100425.39
2018-07-21T10:24:20.657Z,100426.77
2018-07-21T10:26:54.382Z,100418.39
2018-07-21T10:29:22.860Z,100423.42
2018-07-21T10:31:51.292Z,100423.81
2018-07-21T10:34:19.715Z,100434.27
2018-07-21T10:36:48.163Z,100421.55
2018-07-21T10:39:16.568Z,100426.63
2018-07-21T10:41:45.059Z,100432.06
2018-07-21T10:44:13.481Z,100431.47
2018-07-21T10:46:42.019Z,100425.92
2018-07-21T10:49:10.404Z,100425.48
2018-07-21T10:51:38.895Z,100418.39
2018-07-21T10:54:07.613Z,100417.67
2018-07-21T10:56:36.095Z,100417.06
2018-07-21T10:59:04.608Z,100417.67
2018-07-21T11:01:33.024Z,100416.46
2018-07-21T11:04:01.460Z,100418.22
2018-07-21T11:06:29.932Z,100413.37
2018-07-21T11:08:58.332Z,100420.70
2018-07-21T11:11:26.741Z,100418.08
2018-07-21T11:13:55.115Z,100418.38
2018-07-21T11:16:23.582Z,100420.69
2018-07-21T11:18:51.991Z,100419.59
2018-07-21T11:21:20.372Z,100425.42
2018-07-21T11:23:48.768Z,100422.92
2018-07-21T11:26:17.220Z,100421.66
2018-07-21T11:28:45.627Z,100419.84
2018-07-21T11:31:14.062Z,100415.49
2018-07-21T11:33:42.421Z,100420.19
2018-07-21T11:36:11.032Z,100423.73
2018-07-21T11:38:39.176Z,100423.64
2018-07-21T11:41:07.612Z,100422.12
2018-07-21T11:43:36.475Z,100421.43
2018-07-21T11:46:04.986Z,100412.34
2018-07-21T11:48:33.439Z,100413.27
2018-07-21T11:51:02.791Z,100412.72
2018-07-21T11:53:31.233Z,100419.95
2018-07-21T11:55:59.664Z,100411.17
2018-07-21T11:58:28.074Z,100418.31
2018-07-21T12:00:56.495Z,100417.41
2018-07-21T12:03:24.963Z,100423.00
2018-07-21T12:05:53.397Z,100409.14
2018-07-21T12:08:21.789Z,100412.93
2018-07-21T12:10:50.212Z,100412.34
2018-07-21T12:13:18.668Z,100418.41
2018-07-21T12:15:47.129Z,100421.97
2018-07-21T12:18:15.567Z,100416.11
2018-07-21T12:20:44.045Z,100423.41
2018-07-21T12:23:12.464Z,100415.20
2018-07-21T12:25:40.904Z,100421.75
2018-07-21T12:28:09.379Z,100415.60
2018-07-21T12:30:37.884Z,100426.78
2018-07-21T12:33:06.605Z,100422.80
2018-07-21T12:35:35.037Z,100419.33
2018-07-21T12:38:03.541Z,100416.27
2018-07-21T12:40:32.014Z,100408.12
2018-07-21T12:43:00.416Z,100403.86
2018-07-21T12:45:28.839Z,100409.81
2018-07-21T12:47:57.240Z,100402.15
2018-07-21T12:50:25.643Z,100404.86
2018-07-21T12:52:54.077Z,100404.72
2018-07-21T12:55:22.544Z,100405.47
2018-07-21T12:57:50.992Z,100402.83
2018-07-21T13:00:19.438Z,100400.25
2018-07-21T13:02:47.820Z,100399.87
2018-07-21T13:05:16.392Z,100393.88
2018-07-21T13:07:44.852Z,100396.17
2018-07-21T13:10:13.309Z,100392.26
2018-07-21T13:12:41.892Z,100387.13
2018-07-21T13:15:10.340Z,100390.91
2018-07-21T13:17:38.867Z,100392.11
2018-07-21T13:20:07.472Z,100389.42
2018-07-21T13:22:35.932Z,100391.97
2018-07-21T13:25:04.512Z,100386.11
2018-07-21T13:27:32.932Z,100389.91
2018-07-21T13:30:01.337Z,100388.82
2018-07-21T13:32:29.796Z,100386.61
2018-07-21T13:34:58.540Z,100385.77
2018-07-21T13:37:28.052Z,100376.12
2018-07-21T13:39:56.397Z,100374.47
2018-07-21T13:42:25.128Z,100369.71
2018-07-21T13:44:53.592Z,100371.90
2018-07-21T13:47:21.985Z,100370.67
2018-07-21T13:49:50.404Z,100368.42
2018-07-21T13:52:18.889Z,100373.40
2018-07-21T13:54:48.320Z,100370.59
2018-07-21T13:57:16.722Z,100360.19
2018-07-21T13:59:45.111Z,100359.95
2018-07-21T14:02:13.586Z,100365.39
2018-07-21T14:04:41.998Z,100366.45
2018-07-21T14:07:10.476Z,100357.89
2018-07-21T14:09:38.928Z,100361.86
2018-07-21T14:12:07.603Z,100353.33
2018-07-21T14:14:36.180Z,100359.14
2018-07-21T14:17:04.641Z,100357.74
2018-07-21T14:19:33.126Z,100351.39
2018-07-21T14:22:01.566Z,100356.30
2018-07-21T14:24:30.010Z,100354.23
2018-07-21T14:26:58.456Z,100350.74
2018-07-21T14:29:26.892Z,100357.59
2018-07-21T14:31:55.534Z,100355.82
2018-07-21T14:34:23.935Z,100356.80
2018-07-21T14:36:52.363Z,100353.84
2018-07-21T14:39:20.729Z,100353.52
2018-07-21T14:41:49.280Z,100360.75
2018-07-21T14:44:17.672Z,100362.18
2018-07-21T14:46:46.121Z,100365.47
2018-07-21T14:49:14.513Z,100366.70
2018-07-21T14:51:42.973Z,100363.67
2018-07-21T14:54:11.469Z,100364.31
2018-07-21T14:56:39.883Z,100365.15
2018-07-21T14:59:08.391Z,100363.58
2018-07-21T15:01:36.865Z,100366.67
2018-07-21T15:04:05.300Z,100364.94
2018-07-21T15:06:33.946Z,100365.86
2018-07-21T15:09:02.356Z,100365.30
2018-07-21T15:11:30.747Z,100367.29
2018-07-21T15:13:59.228Z,100361.17
2018-07-21T15:16:29.097Z,100365.50
2018-07-21T15:18:57.600Z,100370.18
2018-07-21T15:21:26.092Z,100376.93
2018-07-21T15:23:54.533Z,100371.18
2018-07-21T15:26:23.142Z,100368.86
2018-07-21T15:28:51.610Z,100368.63
2018-07-21T15:31:20.051Z,100375.98
2018-07-21T15:33:48.488Z,100377.36
2018-07-21T15:36:16.870Z,100374.88
2018-07-21T15:38:45.380Z,100381.44
2018-07-21T15:41:13.904Z,100372.99
2018-07-21T15:43:42.294Z,100373.43
2018-07-21T15:46:10.845Z,100370.17
2018-07-21T15:48:39.298Z,100374.42
2018-07-21T15:51:08.064Z,100370.11
2018-07-21T15:53:36.491Z,100372.58
2018-07-21T15:56:04.957Z,100364.71
2018-07-21T15:58:33.433Z,100361.81
2018-07-21T16:01:01.827Z,100369.48
2018-07-21T16:03:30.382Z,100369.73
2018-07-21T16:05:58.837Z,100368.94
2018-07-21T16:08:27.244Z,100369.84
2018-07-21T16:10:55.624Z,100366.67
2018-07-21T16:13:24.033Z,100362.97
2018-07-21T16:15:52.479Z,100367.07
2018-07-21T16:18:20.948Z,100363.40
2018-07-21T16:20:49.376Z,100357.11
2018-07-21T16:23:17.803Z,100353.67
2018-07-21T16:25:46.329Z,100359.89
2018-07-21T16:28:14.886Z,100360.11
2018-07-21T16:30:43.316Z,100361.91
2018-07-21T16:33:11.740Z,100367.59
2018-07-21T16:35:40.191Z,100363.87
2018-07-21T16:38:08.590Z,100365.94
2018-07-21T16:40:36.977Z,100374.00
2018-07-21T16:43:05.375Z,100371.29
2018-07-21T16:45:33.871Z,100368.41
2018-07-21T16:48:02.294Z,100374.16
2018-07-21T16:50:30.696Z,100370.56
2018-07-21T16:53:00.894Z,100364.25
2018-07-21T16:55:29.337Z,100359.09
2018-07-21T16:57:57.743Z,100360.45
2018-07-21T17:00:26.146Z,100363.19
2018-07-21T17:02:54.574Z,100362.05
2018-07-21T17:05:22.974Z,100363.50
2018-07-21T17:07:51.451Z,100354.89
2018-07-21T17:10:19.866Z,100359.66
2018-07-21T17:12:48.319Z,100357.64
2018-07-21T17:15:17.499Z,100354.12
2018-07-21T17:17:45.858Z,100357.36
2018-07-21T17:20:14.364Z,100360.48
2018-07-21T17:22:42.793Z,100359.13
2018-07-21T17:25:11.188Z,100361.25
2018-07-21T17:27:39.616Z,100365.42
2018-07-21T17:30:08.099Z,100360.88
2018-07-21T17:32:36.522Z,100365.16
2018-07-21T17:35:04.981Z,100369.31
2018-07-21T17:37:33.427Z,100376.81
2018-07-21T17:40:01.897Z,100380.83
2018-07-21T17:42:30.322Z,100375.63
2018-07-21T17:44:58.748Z,100375.28
2018-07-21T17:47:27.147Z,100381.05
2018-07-21T17:49:55.603Z,100383.36
2018-07-21T17:52:24.107Z,100392.10
2018-07-21T17:54:52.572Z,100403.42
2018-07-21T17:57:20.957Z,100414.73
2018-07-21T17:59:49.368Z,100411.45
2018-07-21T18:02:17.871Z,100424.21
2018-07-21T18:04:46.266Z,100425.75
2018-07-21T18:07:14.693Z,100424.16
2018-07-21T18:09:43.202Z,100426.69
2018-07-21T18:12:11.692Z,100429.22
2018-07-21T18:14:40.131Z,100432.78
2018-07-21T18:17:08.632Z,100442.97
2018-07-21T18:19:37.241Z,100443.02
2018-07-21T18:22:06.038Z,100443.87
2018-07-21T18:24:34.992Z,100448.69
2018-07-21T18:27:03.503Z,100449.30
2018-07-21T18:29:31.912Z,100454.25
2018-07-21T18:32:00.351Z,100462.73
2018-07-21T18:34:28.780Z,100469.22
2018-07-21T18:36:57.204Z,100478.23
2018-07-21T18:39:25.620Z,100489.34
2018-07-21T18:41:54.621Z,100501.75
2018-07-21T18:44:23.188Z,100505.72
2018-07-21T18:46:51.613Z,100521.61
2018-07-21T18:49:20.463Z,100505.49
2018-07-21T18:51:48.885Z,100503.98
2018-07-21T18:54:18.115Z,100499.08
2018-07-21T18:56:46.616Z,100509.19
2018-07-21T18:59:15.613Z,100517.16
2018-07-21T19:01:44.055Z,100530.66
2018-07-21T19:04:12.479Z,100534.64
2018-07-21T19:06:40.906Z,100525.52
2018-07-21T19:09:10.024Z,100514.51
2018-07-21T19:11:38.803Z,100513.45
2018-07-21T19:14:07.310Z,100507.77
2018-07-21T19:16:44.046Z,100501.48
2018-07-21T19:19:12.505Z,100494.89
2018-07-21T19:21:42.081Z,100489.80
2018-07-21T19:24:10.973Z,100478.20
2018-07-21T19:26:45.580Z,100479.52
2018-07-21T19:29:14.148Z,100474.94
2018-07-21T19:31:48.062Z,100466.30
2018-07-21T19:34:16.810Z,100472.05
2018-07-21T19:36:45.553Z,100469.07
2018-07-21T19:39:14.068Z,100464.94
2018-07-21T19:41:47.972Z,100465.01
2018-07-21T19:44:17.068Z,100466.45
2018-07-21T19:46:45.463Z,100462.22
2018-07-21T19:49:13.888Z,100459.39
2018-07-21T19:51:42.315Z,100462.98
2018-07-21T19:54:10.798Z,100462.50
2018-07-21T19:56:39.271Z,100469.86
2018-07-21T19:59:07.620Z,100472.86
2018-07-21T20:01:35.976Z,100476.98
2018-07-21T20:04:04.425Z,100479.50
2018-07-21T20:06:32.783Z,100485.39
2018-07-21T20:09:01.244Z,100486.24
2018-07-21T20:11:29.722Z,100491.21
2018-07-21T20:13:58.185Z,100495.23
2018-07-21T20:16:26.591Z,100498.70
2018-07-21T20:18:55.058Z,100498.30
2018-07-21T20:21:23.509Z,100501.78
2018-07-21T20:23:51.949Z,100504.98
2018-07-21T20:26:20.533Z,100516.80
2018-07-21T20:28:48.934Z,100509.62
2018-07-21T20:31:17.373Z,100518.28
2018-07-21T20:33:45.807Z,100525.02
2018-07-21T20:36:14.264Z,100529.23
2018-07-21T20:38:42.656Z,100530.92
2018-07-21T20:41:11.089Z,100527.73
2018-07-21T20:43:39.523Z,100528.66
2018-07-21T20:46:07.912Z,100528.66
2018-07-21T20:48:36.425Z,100526.43
2018-07-21T20:51:04.910Z,100530.28
2018-07-21T20:53:33.363Z,100532.03
2018-07-21T20:56:01.842Z,100539.19
2018-07-21T20:58:30.293Z,100542.90
2018-07-21T21:00:58.695Z,100539.22
2018-07-21T21:03:27.151Z,100542.45
2018-07-21T21:05:55.593Z,100550.56
2018-07-21T21:08:24.054Z,100550.52
2018-07-21T21:10:52.545Z,100557.59
2018-07-21T21:13:21.051Z,100549.86
2018-07-21T21:15:49.558Z,100553.89
2018-07-21T21:18:18.155Z,100547.47
2018-07-21T21:20:46.593Z,100550.52
2018-07-21T21:23:15.040Z,100544.78
2018-07-21T21:25:43.505Z,100552.37
2018-07-21T21:28:11.961Z,100546.26
2018-07-21T21:30:40.436Z,100537.44
2018-07-21T21:33:08.850Z,100542.45
2018-07-21T21:35:37.274Z,100547.14
2018-07-21T21:38:05.781Z,100550.14
2018-07-21T21:40:34.240Z,100543.75
2018-07-21T21:43:02.703Z,100543.09
2018-07-21T21:45:31.152Z,100539.41
2018-07-21T21:47:59.638Z,100540.56
2018-07-21T21:50:28.599Z,100541.02
2018-07-21T21:52:57.301Z,100540.06
2018-07-21T21:55:25.831Z,100542.88
2018-07-21T21:57:54.256Z,100544.87
2018-07-21T22:00:22.802Z,100544.08
2018-07-21T22:02:51.212Z,100535.31
2018-07-21T22:05:19.633Z,100548.77
2018-07-21T22:07:48.071Z,100529.77
2018-07-21T22:10:17.444Z,100546.25
2018-07-21T22:12:45.848Z,100550.97
2018-07-21T22:15:18.280Z,100547.94
2018-07-21T22:17:46.724Z,100557.16
2018-07-21T22:20:15.115Z,100564.56
2018-07-21T22:22:43.948Z,100564.56
2018-07-21T22:25:13.245Z,100571.97
2018-07-21T22:27:41.667Z,100573.33
2018-07-21T22:30:11.165Z,100580.34
2018-07-21T22:32:39.574Z,100579.70
2018-07-21T22:35:08.047Z,100582.70
2018-07-21T22:37:36.511Z,100581.45
2018-07-21T22:40:04.972Z,100578.30
2018-07-21T22:42:33.397Z,100582.24
2018-07-21T22:45:01.861Z,100581.39
2018-07-21T22:47:30.248Z,100587.10
2018-07-21T22:49:58.615Z,100587.23
2018-07-21T22:52:27.016Z,100594.14
2018-07-21T22:54:55.452Z,100592.66
2018-07-21T22:57:23.908Z,100595.92
2018-07-21T22:59:52.299Z,100600.22
2018-07-21T23:02:20.767Z,100603.97
2018-07-21T23:04:49.204Z,100604.22
2018-07-21T23:07:17.621Z,100595.05
2018-07-21T23:09:46.127Z,100594.80
2018-07-21T23:12:14.559Z,100601.36
2018-07-21T23:14:43.012Z,100600.16
2018-07-21T23:17:11.504Z,100607.55
2018-07-21T23:19:39.916Z,100596.36
2018-07-21T23:22:08.491Z,100601.67
2018-07-21T23:24:37.413Z,100603.42
2018-07-21T23:27:05.840Z,100606.92
2018-07-21T23:29:34.260Z,100604.97
2018-07-21T23:32:02.717Z,100602.41
2018-07-21T23:34:31.142Z,100601.12
2018-07-21T23:36:59.612Z,100600.78
2018-07-21T23:39:28.041Z,100601.56
2018-07-21T23:41:57.052Z,100602.02
2018-07-21T23:44:25.521Z,100606.48
2018-07-21T23:46:53.945Z,100602.58
2018-07-21T23:49:22.321Z,100605.77
2018-07-21T23:51:50.785Z,100605.32
2018-07-21T23:54:19.185Z,100608.67
2018-07-21T23:56:47.591Z,100609.48
2018-07-21T23:59:16.020Z,100614.61
